sensor_id;sensor_type;location;lat;lon;timestamp;pressure;altitude;pressure_sealevel;temperature;humidity
41102;BME280;26845;50.190;19.178;2022-07-01T00:00:43;98268.98;;;20.13;76.59
41102;BME280;26845;50.190;19.178;2022-07-01T00:03:11;98268.55;;;20.11;76.64
41102;BME280;26845;50.190;19.178;2022-07-01T00:05:36;98267.56;;;20.13;76.78
41102;BME280;26845;50.190;19.178;2022-07-01T00:08:05;98261.92;;;20.13;76.78
41102;BME280;26845;50.190;19.178;2022-07-01T00:10:31;98266.53;;;20.12;76.85
41102;BME280;26845;50.190;19.178;2022-07-01T00:12:57;98261.08;;;20.09;76.92
41102;BME280;26845;50.190;19.178;2022-07-01T00:15:23;98254.02;;;20.06;76.98
41102;BME280;26845;50.190;19.178;2022-07-01T00:17:49;98255.03;;;20.04;77.06
41102;BME280;26845;50.190;19.178;2022-07-01T00:20:15;98264.85;;;20.00;76.98
41102;BME280;26845;50.190;19.178;2022-07-01T00:22:41;98257.77;;;19.93;76.99
41102;BME280;26845;50.190;19.178;2022-07-01T00:25:08;98259.91;;;19.83;77.17
41102;BME280;26845;50.190;19.178;2022-07-01T00:27:38;98256.73;;;19.64;76.95
41102;BME280;26845;50.190;19.178;2022-07-01T00:30:07;98250.47;;;19.40;76.94
41102;BME280;26845;50.190;19.178;2022-07-01T00:32:33;98246.27;;;19.20;77.34
41102;BME280;26845;50.190;19.178;2022-07-01T00:34:59;98251.42;;;19.10;77.68
41102;BME280;26845;50.190;19.178;2022-07-01T00:37:27;98244.98;;;19.10;78.01
41102;BME280;26845;50.190;19.178;2022-07-01T00:39:53;98243.77;;;19.11;78.11
41102;BME280;26845;50.190;19.178;2022-07-01T00:42:20;98235.15;;;19.14;78.20
41102;BME280;26845;50.190;19.178;2022-07-01T00:44:48;98239.83;;;19.19;78.27
41102;BME280;26845;50.190;19.178;2022-07-01T00:47:17;98234.42;;;19.24;78.21
41102;BME280;26845;50.190;19.178;2022-07-01T00:49:47;98228.21;;;19.24;78.30
41102;BME280;26845;50.190;19.178;2022-07-01T00:52:15;98227.61;;;19.25;78.41
41102;BME280;26845;50.190;19.178;2022-07-01T00:54:42;98228.61;;;19.26;78.32
41102;BME280;26845;50.190;19.178;2022-07-01T00:57:10;98225.59;;;19.25;78.21
41102;BME280;26845;50.190;19.178;2022-07-01T00:59:38;98232.89;;;19.30;78.36
41102;BME280;26845;50.190;19.178;2022-07-01T01:02:06;98230.09;;;19.33;78.55
41102;BME280;26845;50.190;19.178;2022-07-01T01:04:36;98237.34;;;19.35;78.44
41102;BME280;26845;50.190;19.178;2022-07-01T01:07:02;98239.36;;;19.34;78.34
41102;BME280;26845;50.190;19.178;2022-07-01T01:09:30;98238.53;;;19.30;78.53
41102;BME280;26845;50.190;19.178;2022-07-01T01:11:56;98236.69;;;19.28;78.42
41102;BME280;26845;50.190;19.178;2022-07-01T01:14:23;98235.83;;;19.24;78.81
41102;BME280;26845;50.190;19.178;2022-07-01T01:16:49;98235.63;;;19.23;79.17
41102;BME280;26845;50.190;19.178;2022-07-01T01:19:15;98231.58;;;19.20;79.20
41102;BME280;26845;50.190;19.178;2022-07-01T01:21:41;98239.83;;;19.19;79.15
41102;BME280;26845;50.190;19.178;2022-07-01T01:24:09;98240.46;;;19.22;79.22
41102;BME280;26845;50.190;19.178;2022-07-01T01:26:35;98238.47;;;19.26;79.16
41102;BME280;26845;50.190;19.178;2022-07-01T01:29:01;98233.88;;;19.28;79.13
41102;BME280;26845;50.190;19.178;2022-07-01T01:31:29;98232.66;;;19.29;79.08
41102;BME280;26845;50.190;19.178;2022-07-01T01:33:59;98232.84;;;19.26;79.10
41102;BME280;26845;50.190;19.178;2022-07-01T01:36:31;98234.48;;;19.27;79.24
41102;BME280;26845;50.190;19.178;2022-07-01T01:38:57;98234.25;;;19.26;79.02
41102;BME280;26845;50.190;19.178;2022-07-01T01:41:27;98232.84;;;19.26;79.04
41102;BME280;26845;50.190;19.178;2022-07-01T01:43:55;98229.39;;;19.23;78.97
41102;BME280;26845;50.190;19.178;2022-07-01T01:46:24;98229.56;;;19.21;78.93
41102;BME280;26845;50.190;19.178;2022-07-01T01:48:50;98232.77;;;19.16;78.85
41102;BME280;26845;50.190;19.178;2022-07-01T01:51:15;98234.72;;;19.12;78.86
41102;BME280;26845;50.190;19.178;2022-07-01T01:53:45;98238.48;;;19.06;78.96
41102;BME280;26845;50.190;19.178;2022-07-01T01:56:11;98236.47;;;19.06;78.95
41102;BME280;26845;50.190;19.178;2022-07-01T01:58:36;98237.48;;;19.04;78.88
41102;BME280;26845;50.190;19.178;2022-07-01T02:01:04;98236.25;;;19.02;78.85
41102;BME280;26845;50.190;19.178;2022-07-01T02:03:33;98235.78;;;18.96;78.78
41102;BME280;26845;50.190;19.178;2022-07-01T02:05:59;98243.74;;;18.87;78.88
41102;BME280;26845;50.190;19.178;2022-07-01T02:08:25;98240.86;;;18.83;79.15
41102;BME280;26845;50.190;19.178;2022-07-01T02:10:51;98234.59;;;18.80;79.40
41102;BME280;26845;50.190;19.178;2022-07-01T02:13:17;98237.41;;;18.80;79.56
41102;BME280;26845;50.190;19.178;2022-07-01T02:15:43;98241.64;;;18.80;79.52
41102;BME280;26845;50.190;19.178;2022-07-01T02:18:09;98243.62;;;18.76;79.36
41102;BME280;26845;50.190;19.178;2022-07-01T02:20:36;98239.87;;;18.69;79.43
41102;BME280;26845;50.190;19.178;2022-07-01T02:23:04;98251.43;;;18.60;79.40
41102;BME280;26845;50.190;19.178;2022-07-01T02:25:36;98255.17;;;18.37;79.38
41102;BME280;26845;50.190;19.178;2022-07-01T02:28:04;98262.09;;;18.13;79.63
41102;BME280;26845;50.190;19.178;2022-07-01T02:30:33;98266.20;;;18.06;80.11
41102;BME280;26845;50.190;19.178;2022-07-01T02:33:04;98257.80;;;18.10;80.33
41102;BME280;26845;50.190;19.178;2022-07-01T02:35:40;98264.14;;;18.16;80.44
41102;BME280;26845;50.190;19.178;2022-07-01T02:38:04;98268.88;;;18.26;80.44
41102;BME280;26845;50.190;19.178;2022-07-01T02:40:34;98268.16;;;18.32;80.44
41102;BME280;26845;50.190;19.178;2022-07-01T02:43:05;98270.04;;;18.38;80.30
41102;BME280;26845;50.190;19.178;2022-07-01T02:45:31;98271.12;;;18.43;80.24
41102;BME280;26845;50.190;19.178;2022-07-01T02:48:00;98267.94;;;18.45;80.25
41102;BME280;26845;50.190;19.178;2022-07-01T02:50:29;98265.48;;;18.43;80.10
41102;BME280;26845;50.190;19.178;2022-07-01T02:52:55;98265.70;;;18.27;79.97
41102;BME280;26845;50.190;19.178;2022-07-01T02:55:24;98265.09;;;18.28;80.15
41102;BME280;26845;50.190;19.178;2022-07-01T02:57:54;98272.73;;;18.27;80.22
41102;BME280;26845;50.190;19.178;2022-07-01T03:00:21;98279.33;;;18.25;80.38
41102;BME280;26845;50.190;19.178;2022-07-01T03:02:48;98271.69;;;18.26;80.42
41102;BME280;26845;50.190;19.178;2022-07-01T03:05:15;98271.53;;;18.28;80.69
41102;BME280;26845;50.190;19.178;2022-07-01T03:07:43;98263.57;;;18.34;80.73
41102;BME280;26845;50.190;19.178;2022-07-01T03:10:10;98262.20;;;18.37;80.59
41102;BME280;26845;50.190;19.178;2022-07-01T03:12:36;98264.64;;;18.39;80.54
41102;BME280;26845;50.190;19.178;2022-07-01T03:15:15;98275.13;;;18.42;80.51
41102;BME280;26845;50.190;19.178;2022-07-01T03:17:42;98270.91;;;18.42;80.41
41102;BME280;26845;50.190;19.178;2022-07-01T03:20:11;98268.09;;;18.42;80.51
41102;BME280;26845;50.190;19.178;2022-07-01T03:22:39;98272.16;;;18.45;80.54
41102;BME280;26845;50.190;19.178;2022-07-01T03:25:06;98275.81;;;18.49;80.62
41102;BME280;26845;50.190;19.178;2022-07-01T03:27:35;98275.64;;;18.51;80.56
41102;BME280;26845;50.190;19.178;2022-07-01T03:30:04;98272.73;;;18.44;80.34
41102;BME280;26845;50.190;19.178;2022-07-01T03:32:31;98277.30;;;18.39;80.58
41102;BME280;26845;50.190;19.178;2022-07-01T03:35:01;98277.67;;;18.37;80.97
41102;BME280;26845;50.190;19.178;2022-07-01T03:37:29;98271.31;;;18.44;81.29
41102;BME280;26845;50.190;19.178;2022-07-01T03:39:55;98274.44;;;18.52;81.69
41102;BME280;26845;50.190;19.178;2022-07-01T03:42:21;98275.19;;;18.62;81.89
41102;BME280;26845;50.190;19.178;2022-07-01T03:44:47;98284.94;;;18.72;81.86
41102;BME280;26845;50.190;19.178;2022-07-01T03:47:13;98286.91;;;18.81;81.94
41102;BME280;26845;50.190;19.178;2022-07-01T03:49:39;98283.56;;;18.89;82.04
41102;BME280;26845;50.190;19.178;2022-07-01T03:52:05;98283.86;;;18.97;82.01
41102;BME280;26845;50.190;19.178;2022-07-01T03:54:31;98280.50;;;19.01;81.85
41102;BME280;26845;50.190;19.178;2022-07-01T03:57:07;98288.98;;;19.05;81.65
41102;BME280;26845;50.190;19.178;2022-07-01T03:59:36;98287.39;;;19.07;81.48
41102;BME280;26845;50.190;19.178;2022-07-01T04:02:04;98287.63;;;19.12;81.49
41102;BME280;26845;50.190;19.178;2022-07-01T04:04:32;98292.55;;;19.19;81.52
41102;BME280;26845;50.190;19.178;2022-07-01T04:07:00;98294.98;;;19.24;81.40
41102;BME280;26845;50.190;19.178;2022-07-01T04:09:29;98290.02;;;19.27;81.37
41102;BME280;26845;50.190;19.178;2022-07-01T04:11:56;98301.31;;;19.30;81.44
41102;BME280;26845;50.190;19.178;2022-07-01T04:14:22;98292.05;;;19.30;81.63
41102;BME280;26845;50.190;19.178;2022-07-01T04:16:49;98296.86;;;19.29;81.42
41102;BME280;26845;50.190;19.178;2022-07-01T04:19:17;98306.72;;;19.29;81.46
41102;BME280;26845;50.190;19.178;2022-07-01T04:21:44;98297.45;;;19.29;81.37
41102;BME280;26845;50.190;19.178;2022-07-01T04:24:29;98297.69;;;19.30;81.54
41102;BME280;26845;50.190;19.178;2022-07-01T04:26:57;98304.33;;;19.31;81.80
41102;BME280;26845;50.190;19.178;2022-07-01T04:29:24;98294.09;;;19.33;82.12
41102;BME280;26845;50.190;19.178;2022-07-01T04:31:49;98298.17;;;19.39;82.49
41102;BME280;26845;50.190;19.178;2022-07-01T04:34:18;98295.84;;;19.48;82.42
41102;BME280;26845;50.190;19.178;2022-07-01T04:36:44;98302.18;;;19.59;82.48
41102;BME280;26845;50.190;19.178;2022-07-01T04:39:12;98298.28;;;19.70;82.55
41102;BME280;26845;50.190;19.178;2022-07-01T04:41:41;98294.77;;;19.84;82.48
41102;BME280;26845;50.190;19.178;2022-07-01T04:44:30;98294.83;;;19.95;82.49
41102;BME280;26845;50.190;19.178;2022-07-01T04:47:03;98297.53;;;20.05;82.79
41102;BME280;26845;50.190;19.178;2022-07-01T04:49:31;98300.01;;;20.13;82.94
41102;BME280;26845;50.190;19.178;2022-07-01T04:51:57;98301.45;;;20.20;82.96
41102;BME280;26845;50.190;19.178;2022-07-01T04:54:24;98312.00;;;20.31;83.03
41102;BME280;26845;50.190;19.178;2022-07-01T04:56:53;98312.27;;;20.42;82.90
41102;BME280;26845;50.190;19.178;2022-07-01T04:59:20;98311.20;;;20.61;83.01
41102;BME280;26845;50.190;19.178;2022-07-01T05:01:46;98316.31;;;20.80;82.94
41102;BME280;26845;50.190;19.178;2022-07-01T05:04:17;98319.80;;;20.94;83.00
41102;BME280;26845;50.190;19.178;2022-07-01T05:06:43;98316.60;;;21.06;82.98
41102;BME280;26845;50.190;19.178;2022-07-01T05:09:14;98308.77;;;21.20;82.98
41102;BME280;26845;50.190;19.178;2022-07-01T05:11:40;98313.27;;;21.35;83.02
41102;BME280;26845;50.190;19.178;2022-07-01T05:14:06;98314.92;;;21.50;83.09
41102;BME280;26845;50.190;19.178;2022-07-01T05:16:34;98308.67;;;21.65;82.86
41102;BME280;26845;50.190;19.178;2022-07-01T05:19:00;98310.09;;;21.79;82.58
41102;BME280;26845;50.190;19.178;2022-07-01T05:21:47;98305.45;;;21.92;82.47
41102;BME280;26845;50.190;19.178;2022-07-01T05:24:25;98307.06;;;22.04;82.59
41102;BME280;26845;50.190;19.178;2022-07-01T05:26:58;98297.95;;;22.15;82.85
41102;BME280;26845;50.190;19.178;2022-07-01T05:29:24;98302.20;;;22.29;82.30
41102;BME280;26845;50.190;19.178;2022-07-01T05:31:59;98302.56;;;22.42;82.18
41102;BME280;26845;50.190;19.178;2022-07-01T05:34:24;98301.13;;;22.53;81.95
41102;BME280;26845;50.190;19.178;2022-07-01T05:36:50;98308.36;;;22.64;81.79
41102;BME280;26845;50.190;19.178;2022-07-01T05:39:16;98310.36;;;22.75;81.59
41102;BME280;26845;50.190;19.178;2022-07-01T05:41:44;98313.73;;;22.92;81.54
41102;BME280;26845;50.190;19.178;2022-07-01T05:44:11;98310.86;;;23.06;81.51
41102;BME280;26845;50.190;19.178;2022-07-01T05:46:38;98306.93;;;23.23;81.36
41102;BME280;26845;50.190;19.178;2022-07-01T05:49:06;98303.76;;;23.43;81.66
41102;BME280;26845;50.190;19.178;2022-07-01T05:51:35;98297.15;;;23.61;81.47
41102;BME280;26845;50.190;19.178;2022-07-01T05:54:04;98301.51;;;23.76;81.67
41102;BME280;26845;50.190;19.178;2022-07-01T05:56:30;98304.45;;;23.88;81.23
41102;BME280;26845;50.190;19.178;2022-07-01T05:59:01;98296.42;;;24.01;81.12
41102;BME280;26845;50.190;19.178;2022-07-01T06:01:27;98296.86;;;24.19;80.63
41102;BME280;26845;50.190;19.178;2022-07-01T06:03:58;98296.31;;;24.35;80.58
41102;BME280;26845;50.190;19.178;2022-07-01T06:06:24;98301.25;;;24.50;79.60
41102;BME280;26845;50.190;19.178;2022-07-01T06:08:57;98303.70;;;24.66;80.20
41102;BME280;26845;50.190;19.178;2022-07-01T06:11:23;98303.29;;;24.83;80.03
41102;BME280;26845;50.190;19.178;2022-07-01T06:13:51;98307.76;;;25.00;79.10
41102;BME280;26845;50.190;19.178;2022-07-01T06:16:17;98295.40;;;25.13;78.88
41102;BME280;26845;50.190;19.178;2022-07-01T06:18:43;98298.25;;;25.29;78.02
41102;BME280;26845;50.190;19.178;2022-07-01T06:21:09;98291.55;;;25.43;77.61
41102;BME280;26845;50.190;19.178;2022-07-01T06:23:36;98296.40;;;25.57;77.31
41102;BME280;26845;50.190;19.178;2022-07-01T06:26:03;98296.97;;;25.72;76.71
41102;BME280;26845;50.190;19.178;2022-07-01T06:28:29;98291.14;;;25.83;76.10
41102;BME280;26845;50.190;19.178;2022-07-01T06:30:57;98295.97;;;25.98;75.49
41102;BME280;26845;50.190;19.178;2022-07-01T06:33:23;98299.44;;;26.09;75.30
41102;BME280;26845;50.190;19.178;2022-07-01T06:35:54;98300.25;;;26.21;74.29
41102;BME280;26845;50.190;19.178;2022-07-01T06:38:20;98299.99;;;26.36;75.18
41102;BME280;26845;50.190;19.178;2022-07-01T06:40:45;98302.77;;;26.51;74.61
41102;BME280;26845;50.190;19.178;2022-07-01T06:43:13;98300.98;;;26.69;73.07
41102;BME280;26845;50.190;19.178;2022-07-01T06:45:39;98302.75;;;26.83;72.85
41102;BME280;26845;50.190;19.178;2022-07-01T06:48:07;98295.15;;;26.96;72.65
41102;BME280;26845;50.190;19.178;2022-07-01T06:50:33;98294.13;;;27.14;72.02
41102;BME280;26845;50.190;19.178;2022-07-01T06:52:59;98297.60;;;27.34;72.08
41102;BME280;26845;50.190;19.178;2022-07-01T06:55:27;98303.63;;;27.56;71.14
41102;BME280;26845;50.190;19.178;2022-07-01T06:57:52;98301.22;;;27.63;69.96
41102;BME280;26845;50.190;19.178;2022-07-01T07:00:19;98298.02;;;27.77;70.47
41102;BME280;26845;50.190;19.178;2022-07-01T07:02:44;98300.11;;;27.93;67.88
41102;BME280;26845;50.190;19.178;2022-07-01T07:05:12;98302.34;;;28.01;69.49
41102;BME280;26845;50.190;19.178;2022-07-01T07:07:40;98292.14;;;28.17;67.92
41102;BME280;26845;50.190;19.178;2022-07-01T07:10:08;98295.14;;;28.34;68.18
41102;BME280;26845;50.190;19.178;2022-07-01T07:12:35;98296.45;;;28.62;68.44
41102;BME280;26845;50.190;19.178;2022-07-01T07:15:02;98297.33;;;28.88;67.93
41102;BME280;26845;50.190;19.178;2022-07-01T07:17:34;98300.56;;;29.11;67.50
41102;BME280;26845;50.190;19.178;2022-07-01T07:20:05;98299.05;;;29.28;66.02
41102;BME280;26845;50.190;19.178;2022-07-01T07:22:34;98301.91;;;29.49;65.89
41102;BME280;26845;50.190;19.178;2022-07-01T07:25:05;98302.91;;;29.63;64.95
41102;BME280;26845;50.190;19.178;2022-07-01T07:27:31;98296.30;;;29.71;63.71
41102;BME280;26845;50.190;19.178;2022-07-01T07:29:59;98297.10;;;29.84;64.70
41102;BME280;26845;50.190;19.178;2022-07-01T07:32:25;98303.56;;;30.06;63.46
41102;BME280;26845;50.190;19.178;2022-07-01T07:34:51;98302.44;;;30.20;62.64
41102;BME280;26845;50.190;19.178;2022-07-01T07:37:18;98296.88;;;30.34;62.45
41102;BME280;26845;50.190;19.178;2022-07-01T07:39:44;98299.73;;;30.52;62.20
41102;BME280;26845;50.190;19.178;2022-07-01T07:42:12;98297.99;;;30.72;61.93
41102;BME280;26845;50.190;19.178;2022-07-01T07:44:38;98296.27;;;30.96;60.53
41102;BME280;26845;50.190;19.178;2022-07-01T07:47:05;98296.02;;;31.03;60.15
41102;BME280;26845;50.190;19.178;2022-07-01T07:49:32;98299.43;;;31.15;60.24
41102;BME280;26845;50.190;19.178;2022-07-01T07:52:02;98293.69;;;31.15;56.58
41102;BME280;26845;50.190;19.178;2022-07-01T07:54:29;98296.91;;;31.18;57.56
41102;BME280;26845;50.190;19.178;2022-07-01T07:56:54;98295.70;;;31.32;57.40
41102;BME280;26845;50.190;19.178;2022-07-01T07:59:22;98299.63;;;31.43;52.40
41102;BME280;26845;50.190;19.178;2022-07-01T08:01:49;98298.27;;;31.35;53.37
41102;BME280;26845;50.190;19.178;2022-07-01T08:04:14;98295.77;;;31.37;54.88
41102;BME280;26845;50.190;19.178;2022-07-01T08:06:40;98305.33;;;31.39;53.22
41102;BME280;26845;50.190;19.178;2022-07-01T08:09:06;98305.52;;;31.44;50.41
41102;BME280;26845;50.190;19.178;2022-07-01T08:11:32;98295.81;;;31.46;52.27
41102;BME280;26845;50.190;19.178;2022-07-01T08:13:58;98304.58;;;31.47;52.31
41102;BME280;26845;50.190;19.178;2022-07-01T08:16:24;98301.28;;;31.58;51.60
41102;BME280;26845;50.190;19.178;2022-07-01T08:18:50;98299.73;;;31.66;52.31
41102;BME280;26845;50.190;19.178;2022-07-01T08:21:16;98306.17;;;31.84;50.81
41102;BME280;26845;50.190;19.178;2022-07-01T08:23:42;98303.33;;;31.89;48.48
41102;BME280;26845;50.190;19.178;2022-07-01T08:26:09;98314.63;;;31.88;48.70
41102;BME280;26845;50.190;19.178;2022-07-01T08:28:39;98312.31;;;31.91;48.70
41102;BME280;26845;50.190;19.178;2022-07-01T08:31:05;98320.95;;;32.00;49.18
41102;BME280;26845;50.190;19.178;2022-07-01T08:33:31;98322.27;;;32.17;48.96
41102;BME280;26845;50.190;19.178;2022-07-01T08:35:59;98325.02;;;32.25;45.73
41102;BME280;26845;50.190;19.178;2022-07-01T08:38:27;98319.73;;;32.19;46.17
41102;BME280;26845;50.190;19.178;2022-07-01T08:40:58;98319.55;;;32.14;47.06
41102;BME280;26845;50.190;19.178;2022-07-01T08:43:31;98317.78;;;32.12;45.92
41102;BME280;26845;50.190;19.178;2022-07-01T08:46:00;98323.38;;;32.11;47.74
41102;BME280;26845;50.190;19.178;2022-07-01T08:48:29;98330.27;;;32.27;44.88
41102;BME280;26845;50.190;19.178;2022-07-01T08:50:55;98329.59;;;32.09;44.89
41102;BME280;26845;50.190;19.178;2022-07-01T08:53:21;98327.98;;;32.03;46.30
41102;BME280;26845;50.190;19.178;2022-07-01T08:55:47;98331.98;;;32.06;45.46
41102;BME280;26845;50.190;19.178;2022-07-01T08:58:32;98329.74;;;32.10;47.55
41102;BME280;26845;50.190;19.178;2022-07-01T09:01:25;98331.23;;;32.19;46.63
41102;BME280;26845;50.190;19.178;2022-07-01T09:03:54;98330.58;;;32.24;47.10
41102;BME280;26845;50.190;19.178;2022-07-01T09:06:26;98337.15;;;32.25;44.33
41102;BME280;26845;50.190;19.178;2022-07-01T09:09:00;98332.64;;;32.15;46.37
41102;BME280;26845;50.190;19.178;2022-07-01T09:11:28;98326.93;;;32.29;47.72
41102;BME280;26845;50.190;19.178;2022-07-01T09:14:09;98326.05;;;32.59;47.73
41102;BME280;26845;50.190;19.178;2022-07-01T09:16:58;98322.05;;;32.93;47.85
41102;BME280;26845;50.190;19.178;2022-07-01T09:19:22;98321.85;;;33.34;47.77
41102;BME280;26845;50.190;19.178;2022-07-01T09:21:58;98321.02;;;33.56;44.66
41102;BME280;26845;50.190;19.178;2022-07-01T09:24:35;98314.75;;;33.63;46.99
41102;BME280;26845;50.190;19.178;2022-07-01T09:27:09;98315.55;;;33.63;45.72
41102;BME280;26845;50.190;19.178;2022-07-01T09:29:46;98317.49;;;33.57;45.09
41102;BME280;26845;50.190;19.178;2022-07-01T09:32:21;98315.58;;;33.58;45.08
41102;BME280;26845;50.190;19.178;2022-07-01T09:34:52;98317.30;;;33.65;44.68
41102;BME280;26845;50.190;19.178;2022-07-01T09:37:22;98317.08;;;33.78;44.98
41102;BME280;26845;50.190;19.178;2022-07-01T09:39:50;98323.77;;;33.84;42.01
41102;BME280;26845;50.190;19.178;2022-07-01T09:42:18;98324.42;;;33.84;44.12
41102;BME280;26845;50.190;19.178;2022-07-01T09:47:29;98317.43;;;34.13;43.69
41102;BME280;26845;50.190;19.178;2022-07-01T09:49:56;98326.67;;;34.22;42.28
41102;BME280;26845;50.190;19.178;2022-07-01T09:52:25;98323.52;;;34.39;42.21
41102;BME280;26845;50.190;19.178;2022-07-01T09:54:52;98321.02;;;34.56;44.00
41102;BME280;26845;50.190;19.178;2022-07-01T09:57:21;98318.73;;;34.60;41.15
41102;BME280;26845;50.190;19.178;2022-07-01T09:59:51;98324.63;;;34.66;42.99
41102;BME280;26845;50.190;19.178;2022-07-01T10:02:19;98322.53;;;34.86;42.04
41102;BME280;26845;50.190;19.178;2022-07-01T10:04:56;98322.55;;;35.05;41.88
41102;BME280;26845;50.190;19.178;2022-07-01T10:12:59;98308.41;;;35.56;40.66
41102;BME280;26845;50.190;19.178;2022-07-01T10:15:30;98313.75;;;35.49;40.25
41102;BME280;26845;50.190;19.178;2022-07-01T10:17:56;98311.59;;;35.58;40.55
41102;BME280;26845;50.190;19.178;2022-07-01T10:20:29;98297.07;;;35.63;40.24
41102;BME280;26845;50.190;19.178;2022-07-01T10:23:04;98308.49;;;35.62;38.21
41102;BME280;26845;50.190;19.178;2022-07-01T10:30:57;98298.02;;;35.50;39.60
41102;BME280;26845;50.190;19.178;2022-07-01T10:33:54;98291.87;;;35.82;36.99
41102;BME280;26845;50.190;19.178;2022-07-01T10:36:32;98292.61;;;35.97;39.04
41102;BME280;26845;50.190;19.178;2022-07-01T10:41:35;98275.26;;;36.43;38.74
41102;BME280;26845;50.190;19.178;2022-07-01T10:44:14;98277.44;;;36.79;38.51
41102;BME280;26845;50.190;19.178;2022-07-01T10:46:52;98271.67;;;37.15;37.30
41102;BME280;26845;50.190;19.178;2022-07-01T10:52:13;98271.52;;;37.40;36.39
41102;BME280;26845;50.190;19.178;2022-07-01T10:54:56;98278.40;;;37.58;35.93
41102;BME280;26845;50.190;19.178;2022-07-01T10:57:28;98278.23;;;37.42;32.53
41102;BME280;26845;50.190;19.178;2022-07-01T11:02:32;98267.91;;;36.62;34.58
41102;BME280;26845;50.190;19.178;2022-07-01T11:05:01;98262.73;;;36.82;35.41
41102;BME280;26845;50.190;19.178;2022-07-01T11:07:34;98267.86;;;37.29;35.76
41102;BME280;26845;50.190;19.178;2022-07-01T11:10:03;98263.83;;;37.63;34.78
41102;BME280;26845;50.190;19.178;2022-07-01T11:12:33;98256.41;;;37.78;34.71
41102;BME280;26845;50.190;19.178;2022-07-01T11:15:05;98251.34;;;37.89;34.37
41102;BME280;26845;50.190;19.178;2022-07-01T11:17:32;98256.23;;;37.93;33.25
41102;BME280;26845;50.190;19.178;2022-07-01T11:19:59;98248.92;;;37.97;33.51
41102;BME280;26845;50.190;19.178;2022-07-01T11:22:33;98254.19;;;37.99;32.46
41102;BME280;26845;50.190;19.178;2022-07-01T11:25:03;98247.59;;;37.83;31.35
41102;BME280;26845;50.190;19.178;2022-07-01T11:27:32;98245.06;;;37.74;32.32
41102;BME280;26845;50.190;19.178;2022-07-01T11:30:02;98244.06;;;37.83;32.71
41102;BME280;26845;50.190;19.178;2022-07-01T11:32:35;98241.70;;;37.87;31.46
41102;BME280;26845;50.190;19.178;2022-07-01T11:35:04;98237.61;;;37.84;32.84
41102;BME280;26845;50.190;19.178;2022-07-01T11:37:35;98234.33;;;37.86;31.55
41102;BME280;26845;50.190;19.178;2022-07-01T11:40:20;98235.30;;;37.56;30.28
41102;BME280;26845;50.190;19.178;2022-07-01T11:42:51;98242.65;;;37.25;30.48
41102;BME280;26845;50.190;19.178;2022-07-01T11:45:25;98232.19;;;37.33;31.47
41102;BME280;26845;50.190;19.178;2022-07-01T11:47:53;98228.34;;;37.58;30.50
41102;BME280;26845;50.190;19.178;2022-07-01T11:50:20;98234.68;;;37.62;30.78
41102;BME280;26845;50.190;19.178;2022-07-01T11:52:53;98222.73;;;37.86;31.02
41102;BME280;26845;50.190;19.178;2022-07-01T11:55:20;98225.16;;;38.15;30.95
41102;BME280;26845;50.190;19.178;2022-07-01T11:57:49;98224.59;;;38.38;30.68
41102;BME280;26845;50.190;19.178;2022-07-01T12:00:16;98222.70;;;38.56;30.99
41102;BME280;26845;50.190;19.178;2022-07-01T12:02:43;98214.77;;;38.24;28.62
41102;BME280;26845;50.190;19.178;2022-07-01T12:05:09;98220.30;;;37.57;29.21
41102;BME280;26845;50.190;19.178;2022-07-01T12:07:35;98223.83;;;37.41;29.06
41102;BME280;26845;50.190;19.178;2022-07-01T12:10:01;98227.04;;;37.01;28.83
41102;BME280;26845;50.190;19.178;2022-07-01T12:12:27;98210.69;;;36.88;29.65
41102;BME280;26845;50.190;19.178;2022-07-01T12:14:58;98220.59;;;37.02;29.73
41102;BME280;26845;50.190;19.178;2022-07-01T12:17:26;98222.11;;;37.23;29.50
41102;BME280;26845;50.190;19.178;2022-07-01T12:19:54;98224.11;;;37.27;28.98
41102;BME280;26845;50.190;19.178;2022-07-01T12:22:25;98222.05;;;37.33;29.35
41102;BME280;26845;50.190;19.178;2022-07-01T12:25:09;98216.95;;;37.49;28.15
41102;BME280;26845;50.190;19.178;2022-07-01T12:27:38;98211.69;;;37.21;27.01
41102;BME280;26845;50.190;19.178;2022-07-01T12:30:07;98218.16;;;37.10;29.31
41102;BME280;26845;50.190;19.178;2022-07-01T12:32:39;98216.16;;;37.22;28.95
41102;BME280;26845;50.190;19.178;2022-07-01T12:35:07;98219.41;;;37.46;29.20
41102;BME280;26845;50.190;19.178;2022-07-01T12:37:36;98214.47;;;37.73;29.28
41102;BME280;26845;50.190;19.178;2022-07-01T12:40:06;98222.95;;;37.61;28.23
41102;BME280;26845;50.190;19.178;2022-07-01T12:42:43;98221.96;;;37.70;28.76
41102;BME280;26845;50.190;19.178;2022-07-01T12:45:08;98222.48;;;38.06;29.31
41102;BME280;26845;50.190;19.178;2022-07-01T12:47:43;98220.95;;;38.21;28.89
41102;BME280;26845;50.190;19.178;2022-07-01T12:53:11;98225.89;;;38.64;28.59
41102;BME280;26845;50.190;19.178;2022-07-01T12:55:40;98223.13;;;38.70;28.13
41102;BME280;26845;50.190;19.178;2022-07-01T12:58:16;98232.63;;;38.60;24.73
41102;BME280;26845;50.190;19.178;2022-07-01T13:00:45;98222.04;;;38.02;27.06
41102;BME280;26845;50.190;19.178;2022-07-01T13:03:21;98219.17;;;37.87;28.10
41102;BME280;26845;50.190;19.178;2022-07-01T13:05:49;98219.83;;;38.08;27.72
41102;BME280;26845;50.190;19.178;2022-07-01T13:08:21;98224.50;;;38.15;28.07
41102;BME280;26845;50.190;19.178;2022-07-01T13:10:48;98220.06;;;38.25;26.71
41102;BME280;26845;50.190;19.178;2022-07-01T13:13:15;98214.88;;;38.19;27.96
41102;BME280;26845;50.190;19.178;2022-07-01T13:15:46;98228.69;;;38.09;26.91
41102;BME280;26845;50.190;19.178;2022-07-01T13:18:13;98227.20;;;37.87;27.72
41102;BME280;26845;50.190;19.178;2022-07-01T13:20:41;98220.21;;;38.05;27.64
41102;BME280;26845;50.190;19.178;2022-07-01T13:23:08;98222.92;;;38.14;27.68